createdAt,value
2023-02-15T00:01:49.953Z,4.50
2023-02-15T00:04:21.246Z,4.50
2023-02-15T00:06:49.105Z,4.50
2023-02-15T00:09:16.254Z,4.50
2023-02-15T00:11:52.509Z,4.50
2023-02-15T00:14:22.336Z,4.40
2023-02-15T00:16:51.489Z,4.40
2023-02-15T00:19:20.196Z,4.50
2023-02-15T00:21:48.373Z,4.40
2023-02-15T00:24:17.021Z,4.40
2023-02-15T00:26:44.932Z,4.50
2023-02-15T00:29:13.144Z,4.50
2023-02-15T00:31:40.157Z,4.60
2023-02-15T00:34:11.756Z,4.50
2023-02-15T00:36:38.923Z,4.40
2023-02-15T00:39:06.044Z,4.30
2023-02-15T00:41:33.589Z,4.20
2023-02-15T00:44:00.725Z,4.20
2023-02-15T00:46:27.755Z,4.20
2023-02-15T00:48:54.903Z,4.10
2023-02-15T00:51:21.784Z,4.10
2023-02-15T00:53:49.189Z,4.10
2023-02-15T00:56:16.601Z,4.10
2023-02-15T00:58:44.040Z,4.00
2023-02-15T01:01:17.543Z,4.00
2023-02-15T01:03:44.838Z,4.10
2023-02-15T01:06:11.998Z,4.00
2023-02-15T01:08:39.443Z,4.00
2023-02-15T01:11:08.984Z,4.00
2023-02-15T01:13:36.671Z,4.10
2023-02-15T01:16:05.405Z,4.00
2023-02-15T01:18:33.350Z,4.10
2023-02-15T01:21:00.307Z,4.20
2023-02-15T01:23:27.428Z,4.10
2023-02-15T01:25:54.352Z,4.00
2023-02-15T01:28:21.214Z,4.00
2023-02-15T01:30:48.194Z,3.90
2023-02-15T01:33:18.972Z,3.90
2023-02-15T01:35:47.149Z,4.00
2023-02-15T01:38:16.290Z,4.00
2023-02-15T01:40:43.552Z,4.00
2023-02-15T01:43:12.593Z,4.00
2023-02-15T01:45:40.373Z,4.00
2023-02-15T01:48:23.895Z,4.00
2023-02-15T01:50:57.822Z,4.00
2023-02-15T01:53:30.694Z,3.90
2023-02-15T01:56:12.102Z,3.70
2023-02-15T01:58:39.532Z,3.60
2023-02-15T02:01:08.769Z,3.60
2023-02-15T02:03:59.742Z,3.50
2023-02-15T02:06:28.329Z,3.60
2023-02-15T02:08:56.811Z,3.60
2023-02-15T02:11:24.065Z,3.60
2023-02-15T02:13:52.269Z,3.70
2023-02-15T02:16:38.850Z,3.70
2023-02-15T02:19:44.469Z,3.70
2023-02-15T02:22:24.016Z,3.60
2023-02-15T02:25:22.814Z,3.50
2023-02-15T02:27:59.336Z,3.40
2023-02-15T02:30:53.110Z,3.30
2023-02-15T02:33:46.421Z,3.30
2023-02-15T02:36:28.123Z,3.30
2023-02-15T02:38:57.734Z,3.20
2023-02-15T02:41:59.928Z,3.30
2023-02-15T02:44:29.566Z,3.30
2023-02-15T02:47:07.159Z,3.20
2023-02-15T02:49:37.594Z,3.20
2023-02-15T02:52:07.779Z,3.30
2023-02-15T02:54:36.747Z,3.20
2023-02-15T02:57:08.224Z,3.00
2023-02-15T02:59:40.896Z,2.90
2023-02-15T03:02:27.322Z,3.00
2023-02-15T03:05:04.300Z,3.10
2023-02-15T03:07:32.636Z,3.10
2023-02-15T03:10:01.627Z,3.00
2023-02-15T03:12:35.749Z,3.00
2023-02-15T03:15:18.358Z,3.00
2023-02-15T03:17:51.137Z,3.00
2023-02-15T03:20:37.162Z,3.10
2023-02-15T03:23:14.829Z,3.30
2023-02-15T03:25:45.065Z,3.20
2023-02-15T03:28:16.939Z,3.20
2023-02-15T03:30:49.598Z,3.20
2023-02-15T03:33:17.214Z,3.20
2023-02-15T03:35:50.167Z,3.30
2023-02-15T03:38:26.075Z,3.30
2023-02-15T03:41:11.065Z,3.30
2023-02-15T03:43:53.266Z,3.20
2023-02-15T03:46:29.142Z,3.10
2023-02-15T03:49:01.202Z,3.10
2023-02-15T03:51:35.713Z,3.10
2023-02-15T03:54:09.923Z,3.20
2023-02-15T03:56:42.691Z,3.10
2023-02-15T03:59:27.984Z,3.20
2023-02-15T04:02:01.157Z,3.20
2023-02-15T04:04:37.048Z,3.20
2023-02-15T04:07:07.066Z,3.20
2023-02-15T04:09:52.339Z,3.00
2023-02-15T04:12:19.228Z,3.00
2023-02-15T04:15:04.642Z,3.00
2023-02-15T04:17:31.614Z,2.90
2023-02-15T04:20:16.968Z,2.90
2023-02-15T04:23:02.768Z,2.90
2023-02-15T04:25:29.618Z,2.80
2023-02-15T04:27:56.446Z,2.80
2023-02-15T04:30:25.825Z,2.80
2023-02-15T04:32:54.282Z,2.80
2023-02-15T04:35:21.350Z,2.80
2023-02-15T04:37:48.320Z,2.70
2023-02-15T04:40:19.105Z,2.70
2023-02-15T04:42:49.453Z,2.70
2023-02-15T04:45:16.492Z,2.60
2023-02-15T04:47:43.360Z,2.60
2023-02-15T04:50:10.815Z,2.60
2023-02-15T04:52:37.638Z,2.70
2023-02-15T04:55:05.809Z,2.50
2023-02-15T04:57:32.755Z,2.50
2023-02-15T05:00:00.212Z,2.50
2023-02-15T05:02:27.122Z,2.50
2023-02-15T05:04:53.980Z,2.60
2023-02-15T05:07:21.446Z,2.50
2023-02-15T05:09:49.298Z,2.50
2023-02-15T05:12:16.195Z,2.50
2023-02-15T05:14:43.040Z,2.50
2023-02-15T05:17:09.891Z,2.70
2023-02-15T05:19:36.728Z,2.70
2023-02-15T05:22:03.608Z,2.70
2023-02-15T05:24:48.936Z,2.60
2023-02-15T05:27:34.416Z,2.60
2023-02-15T05:30:01.518Z,2.60
2023-02-15T05:32:28.522Z,2.50
2023-02-15T05:34:55.456Z,2.40
2023-02-15T05:37:22.307Z,2.30
2023-02-15T05:39:49.128Z,2.40
2023-02-15T05:42:15.994Z,2.40
2023-02-15T05:44:42.894Z,2.30
2023-02-15T05:47:09.728Z,2.20
2023-02-15T05:49:37.020Z,2.10
2023-02-15T05:52:05.001Z,2.20
2023-02-15T05:54:32.196Z,2.20
2023-02-15T05:56:59.592Z,2.20
2023-02-15T05:59:26.585Z,2.00
2023-02-15T06:01:53.420Z,1.90
2023-02-15T06:04:20.271Z,1.80
2023-02-15T06:06:47.503Z,1.90
2023-02-15T06:09:15.039Z,2.10
2023-02-15T06:11:41.920Z,2.00
2023-02-15T06:14:08.850Z,2.00
2023-02-15T06:16:35.662Z,1.90
2023-02-15T06:19:03.134Z,1.90
2023-02-15T06:21:31.311Z,2.00
2023-02-15T06:24:00.009Z,2.10
2023-02-15T06:26:26.949Z,2.10
2023-02-15T06:28:53.826Z,2.00
2023-02-15T06:31:21.043Z,2.00
2023-02-15T06:33:47.986Z,2.00
2023-02-15T06:36:14.879Z,2.00
2023-02-15T06:38:42.279Z,2.00
2023-02-15T06:41:09.150Z,1.90
2023-02-15T06:43:36.073Z,1.90
2023-02-15T06:46:03.196Z,1.90
2023-02-15T06:48:30.363Z,1.90
2023-02-15T06:50:57.319Z,1.80
2023-02-15T06:53:25.151Z,1.80
2023-02-15T06:55:52.025Z,1.90
2023-02-15T06:58:18.887Z,1.90
2023-02-15T07:00:45.706Z,1.80
2023-02-15T07:03:14.595Z,1.80
2023-02-15T07:05:41.461Z,1.80
2023-02-15T07:08:08.299Z,1.80
2023-02-15T07:10:35.142Z,1.90
2023-02-15T07:13:02.069Z,2.00
2023-02-15T07:15:29.012Z,2.00
2023-02-15T07:17:55.861Z,2.00
2023-02-15T07:20:24.337Z,2.10
2023-02-15T07:22:51.986Z,2.30
2023-02-15T07:25:19.605Z,2.40
2023-02-15T07:27:46.798Z,2.60
2023-02-15T07:30:16.197Z,2.60
2023-02-15T07:33:04.741Z,2.60
2023-02-15T07:35:32.175Z,2.70
2023-02-15T07:37:59.052Z,2.80
2023-02-15T07:40:26.046Z,2.90
2023-02-15T07:42:57.267Z,3.00
2023-02-15T07:45:24.224Z,3.10
2023-02-15T07:47:51.192Z,3.20
2023-02-15T07:50:18.204Z,3.20
2023-02-15T07:52:45.048Z,3.30
2023-02-15T07:55:14.070Z,3.40
2023-02-15T07:57:48.252Z,3.50
2023-02-15T08:00:18.105Z,3.50
2023-02-15T08:03:12.912Z,3.60
2023-02-15T08:05:44.779Z,3.60
2023-02-15T08:08:31.265Z,3.60
2023-02-15T08:11:25.678Z,3.60
2023-02-15T08:13:58.913Z,3.70
2023-02-15T08:16:36.365Z,3.70
2023-02-15T08:19:08.277Z,3.80
2023-02-15T08:21:37.764Z,3.90
2023-02-15T08:24:06.052Z,4.10
2023-02-15T08:26:33.608Z,4.00
2023-02-15T08:29:01.434Z,4.10
2023-02-15T08:31:29.321Z,4.20
2023-02-15T08:33:57.777Z,4.20
2023-02-15T08:36:28.102Z,4.20
2023-02-15T08:38:55.360Z,4.20
2023-02-15T08:41:27.869Z,4.30
2023-02-15T08:43:56.456Z,4.40
2023-02-15T08:46:25.700Z,4.50
2023-02-15T08:48:53.222Z,4.70
2023-02-15T08:51:47.698Z,4.70
2023-02-15T08:54:16.989Z,4.90
2023-02-15T08:56:44.976Z,5.00
2023-02-15T08:59:20.558Z,5.10
2023-02-15T09:01:49.408Z,5.40
2023-02-15T09:04:17.126Z,5.50
2023-02-15T09:06:47.715Z,5.60
2023-02-15T09:09:15.476Z,5.70
2023-02-15T09:11:44.767Z,5.90
2023-02-15T09:14:17.007Z,6.00
2023-02-15T09:16:47.501Z,6.00
2023-02-15T09:19:14.621Z,6.10
2023-02-15T09:21:41.880Z,6.10
2023-02-15T09:24:11.711Z,6.20
2023-02-15T09:26:43.741Z,6.30
2023-02-15T09:29:11.949Z,6.40
2023-02-15T09:31:42.490Z,6.40
2023-02-15T09:34:09.715Z,6.60
2023-02-15T09:36:40.129Z,6.60
2023-02-15T09:39:28.361Z,6.70
2023-02-15T09:42:05.953Z,6.90
2023-02-15T09:44:57.393Z,7.10
2023-02-15T09:48:13.421Z,7.30
2023-02-15T09:51:07.939Z,7.50
2023-02-15T09:53:43.307Z,7.60
2023-02-15T09:56:28.068Z,8.00
2023-02-15T09:59:18.368Z,8.40
2023-02-15T10:01:48.163Z,8.30
2023-02-15T10:04:40.803Z,8.40
2023-02-15T10:07:12.897Z,8.50
2023-02-15T10:09:39.664Z,8.50
2023-02-15T10:12:32.754Z,8.60
2023-02-15T10:15:15.848Z,8.50
2023-02-15T10:18:30.175Z,8.70
2023-02-15T10:21:15.780Z,9.10
2023-02-15T10:24:40.557Z,9.10
2023-02-15T10:27:19.662Z,9.10
2023-02-15T10:29:56.929Z,9.30
2023-02-15T10:32:27.385Z,9.60
2023-02-15T10:35:04.720Z,9.40
2023-02-15T10:37:59.610Z,9.50
2023-02-15T10:40:32.417Z,9.60
2023-02-15T10:43:17.465Z,9.80
2023-02-15T10:46:02.677Z,9.90
2023-02-15T10:48:52.419Z,9.90
2023-02-15T10:51:48.153Z,10.20
2023-02-15T10:54:37.519Z,10.50
2023-02-15T10:57:13.443Z,10.80
2023-02-15T10:59:49.222Z,10.60
2023-02-15T11:02:16.037Z,10.90
2023-02-15T11:05:12.231Z,10.90
2023-02-15T11:07:44.143Z,10.90
2023-02-15T11:10:43.148Z,10.70
2023-02-15T11:13:18.065Z,10.90
2023-02-15T11:15:50.550Z,10.90
2023-02-15T11:18:43.200Z,10.90
2023-02-15T11:21:12.953Z,10.80
2023-02-15T11:23:45.921Z,10.70
2023-02-15T11:26:44.017Z,10.70
2023-02-15T11:29:21.241Z,11.00
2023-02-15T11:31:56.091Z,11.00
2023-02-15T11:34:39.645Z,10.80
2023-02-15T11:37:11.222Z,10.80
2023-02-15T11:39:38.503Z,10.80
2023-02-15T11:42:18.074Z,10.80
2023-02-15T11:45:24.155Z,10.90
2023-02-15T11:47:51.161Z,10.70
2023-02-15T11:50:23.889Z,10.70
2023-02-15T11:52:58.093Z,10.70
2023-02-15T11:55:25.862Z,10.80
2023-02-15T11:58:09.846Z,10.70
2023-02-15T12:00:48.879Z,10.70
2023-02-15T12:04:13.745Z,10.70
2023-02-15T12:06:47.850Z,10.90
2023-02-15T12:09:26.093Z,10.90
2023-02-15T12:11:52.957Z,11.00
2023-02-15T12:14:20.634Z,11.00
2023-02-15T12:16:52.646Z,11.00
2023-02-15T12:19:25.221Z,11.20
2023-02-15T12:21:54.036Z,11.20
2023-02-15T12:24:25.901Z,11.40
2023-02-15T12:27:02.551Z,11.60
2023-02-15T12:29:36.061Z,11.70
2023-02-15T12:32:04.567Z,11.50
2023-02-15T12:34:34.154Z,11.60
2023-02-15T12:37:26.704Z,11.60
2023-02-15T12:40:01.802Z,11.60
2023-02-15T12:42:43.444Z,11.60
2023-02-15T12:45:31.565Z,11.60
2023-02-15T12:48:14.023Z,11.80
2023-02-15T12:50:42.288Z,11.90
2023-02-15T12:53:24.278Z,11.80
2023-02-15T12:55:59.655Z,12.20
2023-02-15T12:58:29.173Z,11.80
2023-02-15T13:01:16.528Z,12.00
2023-02-15T13:03:55.460Z,12.00
2023-02-15T13:06:22.530Z,12.20
2023-02-15T13:08:52.651Z,12.40
2023-02-15T13:11:35.010Z,12.50
2023-02-15T13:14:04.955Z,12.90
2023-02-15T13:16:34.024Z,12.80
2023-02-15T13:19:13.637Z,12.90
2023-02-15T13:21:44.295Z,12.90
2023-02-15T13:24:36.023Z,12.80
2023-02-15T13:27:14.903Z,12.90
2023-02-15T13:29:52.533Z,12.80
2023-02-15T13:32:41.419Z,12.60
2023-02-15T13:35:16.880Z,12.50
2023-02-15T13:38:12.912Z,12.50
2023-02-15T13:41:09.045Z,12.30
2023-02-15T13:43:53.530Z,12.50
2023-02-15T13:46:42.595Z,12.70
2023-02-15T13:49:22.729Z,12.60
2023-02-15T13:52:15.058Z,12.50
2023-02-15T13:54:47.453Z,12.60
2023-02-15T13:57:32.582Z,12.60
2023-02-15T14:00:29.158Z,12.70
2023-02-15T14:03:36.167Z,12.70
2023-02-15T14:06:21.733Z,12.90
2023-02-15T14:08:54.663Z,12.80
2023-02-15T14:11:44.509Z,12.60
2023-02-15T14:14:41.086Z,12.80
2023-02-15T14:17:19.022Z,12.60
2023-02-15T14:19:57.362Z,12.80
2023-02-15T14:22:45.012Z,12.80
2023-02-15T14:25:21.912Z,12.80
2023-02-15T14:28:13.545Z,12.80
2023-02-15T14:30:49.542Z,12.90
2023-02-15T14:33:17.797Z,12.70
2023-02-15T14:35:45.442Z,12.80
2023-02-15T14:38:37.004Z,12.80
2023-02-15T14:41:22.427Z,12.70
2023-02-15T14:43:54.505Z,12.60
2023-02-15T14:46:46.083Z,12.60
2023-02-15T14:49:19.433Z,12.60
2023-02-15T14:51:50.713Z,12.60
2023-02-15T14:54:18.072Z,12.60
2023-02-15T14:56:46.220Z,12.60
2023-02-15T14:59:15.114Z,12.50
2023-02-15T15:01:42.592Z,12.50
2023-02-15T15:04:23.509Z,12.50
2023-02-15T15:07:01.228Z,12.40
2023-02-15T15:09:29.960Z,12.40
2023-02-15T15:12:15.321Z,12.40
2023-02-15T15:14:45.408Z,12.30
2023-02-15T15:17:33.455Z,12.30
2023-02-15T15:20:22.641Z,12.30
2023-02-15T15:22:50.981Z,12.30
2023-02-15T15:25:55.698Z,12.40
2023-02-15T15:28:48.825Z,12.30
2023-02-15T15:31:20.490Z,12.20
2023-02-15T15:33:59.498Z,12.30
2023-02-15T15:36:57.269Z,12.30
2023-02-15T15:40:09.441Z,12.20
2023-02-15T15:42:48.360Z,12.20
2023-02-15T15:46:14.625Z,12.10
2023-02-15T15:48:43.056Z,12.10
2023-02-15T15:51:32.860Z,12.00
2023-02-15T15:54:02.854Z,11.90
2023-02-15T15:56:33.433Z,11.90
2023-02-15T15:59:07.527Z,11.80
2023-02-15T16:01:48.065Z,11.70
2023-02-15T16:04:25.573Z,11.80
2023-02-15T16:06:53.081Z,11.70
2023-02-15T16:09:21.860Z,11.60
2023-02-15T16:12:01.512Z,11.50
2023-02-15T16:14:31.410Z,11.50
2023-02-15T16:16:26.660Z,19.90
2023-02-15T16:17:01.501Z,11.40
2023-02-15T16:18:55.070Z,19.50
2023-02-15T16:19:36.120Z,11.30
2023-02-15T16:21:28.380Z,19.20
2023-02-15T16:22:04.832Z,11.30
2023-02-15T16:24:18.649Z,19.10
2023-02-15T16:24:49.827Z,11.30
2023-02-15T16:27:16.663Z,19.10
2023-02-15T16:27:24.210Z,11.20
2023-02-15T16:29:44.758Z,19.10
2023-02-15T16:29:51.409Z,11.10
2023-02-15T16:32:26.798Z,11.10
2023-02-15T16:34:35.950Z,19.10
2023-02-15T16:34:53.951Z,11.10
2023-02-15T16:37:17.951Z,19.30
2023-02-15T16:37:24.421Z,11.00
2023-02-15T16:39:49.009Z,19.30
2023-02-15T16:39:51.866Z,11.00
2023-02-15T16:42:18.306Z,19.40
2023-02-15T16:42:19.696Z,10.90
2023-02-15T16:44:48.027Z,19.40
2023-02-15T16:44:51.102Z,10.90
2023-02-15T16:47:28.476Z,10.90
2023-02-15T16:49:05.932Z,19.40
2023-02-15T16:49:58.954Z,10.80
2023-02-15T16:51:35.966Z,19.40
2023-02-15T16:52:28.090Z,10.80
2023-02-15T16:54:09.993Z,19.30
2023-02-15T16:55:00.944Z,10.70
2023-02-15T16:56:38.259Z,19.30
2023-02-15T16:57:47.852Z,10.60
2023-02-15T16:59:06.576Z,19.30
2023-02-15T17:00:26.460Z,10.60
2023-02-15T17:01:35.432Z,19.30
2023-02-15T17:03:07.447Z,10.60
2023-02-15T17:04:27.818Z,19.30
2023-02-15T17:06:01.771Z,10.40
2023-02-15T17:07:06.394Z,19.30
2023-02-15T17:08:33.005Z,10.40
2023-02-15T17:09:35.388Z,19.20
2023-02-15T17:11:00.109Z,10.30
2023-02-15T17:12:04.061Z,19.20
2023-02-15T17:13:28.322Z,10.30
2023-02-15T17:14:33.314Z,19.20
2023-02-15T17:16:02.130Z,10.20
2023-02-15T17:17:08.251Z,19.20
2023-02-15T17:18:41.145Z,10.00
2023-02-15T17:19:52.332Z,19.20
2023-02-15T17:21:14.687Z,10.00
2023-02-15T17:23:48.223Z,10.00
2023-02-15T17:26:24.086Z,10.00
2023-02-15T17:28:54.239Z,10.00
2023-02-15T17:31:25.256Z,9.80
2023-02-15T17:33:55.393Z,9.80
2023-02-15T17:36:24.597Z,9.80
2023-02-15T17:39:00.534Z,9.70
2023-02-15T17:41:32.397Z,9.70
2023-02-15T17:44:00.376Z,9.80
2023-02-15T17:46:33.553Z,9.80
2023-02-15T17:49:00.526Z,9.70
2023-02-15T17:51:27.943Z,9.70
2023-02-15T17:54:13.311Z,9.70
2023-02-15T17:56:40.601Z,9.80
2023-02-15T17:59:07.679Z,9.80
2023-02-15T18:02:07.348Z,9.70
2023-02-15T18:04:55.947Z,9.80
2023-02-15T18:07:41.969Z,9.80
2023-02-15T18:10:35.296Z,9.70
2023-02-15T18:13:02.516Z,9.60
2023-02-15T18:15:30.002Z,9.50
2023-02-15T18:17:57.465Z,9.50
2023-02-15T18:20:37.250Z,9.50
2023-02-15T18:23:04.040Z,9.40
2023-02-15T18:25:30.948Z,9.50
2023-02-15T18:27:58.041Z,9.40
2023-02-15T18:30:26.825Z,9.30
2023-02-15T18:32:57.074Z,9.40
2023-02-15T18:35:27.437Z,9.40
2023-02-15T18:37:54.983Z,9.40
2023-02-15T18:40:25.446Z,9.30
2023-02-15T18:42:52.774Z,9.30
2023-02-15T18:45:23.632Z,9.40
2023-02-15T18:47:51.038Z,9.30
2023-02-15T18:50:20.385Z,9.30
2023-02-15T18:52:50.575Z,9.30
2023-02-15T18:55:20.331Z,9.30
2023-02-15T18:57:48.578Z,9.30
2023-02-15T19:00:28.456Z,9.30
2023-02-15T19:02:55.998Z,9.30
2023-02-15T19:05:23.346Z,9.30
2023-02-15T19:07:51.060Z,9.30
2023-02-15T19:10:21.330Z,9.30
2023-02-15T19:12:49.207Z,9.20
2023-02-15T19:15:18.354Z,9.20
2023-02-15T19:17:45.326Z,9.20
2023-02-15T19:19:46.660Z,8.20
2023-02-15T19:20:17.771Z,9.10
2023-02-15T19:22:15.998Z,8.10
2023-02-15T19:22:47.004Z,9.00
2023-02-15T19:24:46.792Z,8.10
2023-02-15T19:25:25.949Z,9.00
2023-02-15T19:27:22.567Z,8.00
2023-02-15T19:27:54.210Z,9.10
2023-02-15T19:29:51.314Z,7.90
2023-02-15T19:32:19.562Z,7.80
2023-02-15T19:32:52.106Z,8.90
2023-02-15T19:34:49.059Z,7.70
2023-02-15T19:35:22.582Z,8.90
2023-02-15T19:37:26.534Z,7.50
2023-02-15T19:37:52.812Z,8.80
2023-02-15T19:39:56.263Z,7.40
2023-02-15T19:40:24.603Z,8.70
2023-02-15T19:42:25.443Z,7.30
2023-02-15T19:42:51.547Z,8.70
2023-02-15T19:44:54.699Z,7.20
2023-02-15T19:45:21.160Z,8.80
2023-02-15T19:47:23.035Z,7.10
2023-02-15T19:47:48.459Z,8.80
2023-02-15T19:49:52.568Z,7.10
2023-02-15T19:50:20.070Z,8.70
2023-02-15T19:52:24.344Z,6.90
2023-02-15T19:52:48.255Z,8.60
2023-02-15T19:54:55.912Z,6.80
2023-02-15T19:55:31.621Z,8.60
2023-02-15T19:57:24.970Z,6.70
2023-02-15T19:57:59.593Z,8.60
2023-02-15T19:59:53.045Z,6.70
2023-02-15T20:00:29.662Z,8.60
2023-02-15T20:02:21.670Z,6.70
2023-02-15T20:02:58.032Z,8.50
2023-02-15T20:04:50.020Z,6.50
2023-02-15T20:05:28.981Z,8.40
2023-02-15T20:07:25.752Z,6.50
2023-02-15T20:07:56.291Z,8.40
2023-02-15T20:09:54.120Z,6.50
2023-02-15T20:10:28.680Z,8.40
2023-02-15T20:12:24.342Z,6.40
2023-02-15T20:12:56.141Z,8.40
2023-02-15T20:14:52.923Z,6.40
2023-02-15T20:15:31.696Z,8.30
2023-02-15T20:17:21.356Z,6.40
2023-02-15T20:18:00.053Z,8.30
2023-02-15T20:19:49.697Z,6.30
2023-02-15T20:20:32.240Z,8.40
2023-02-15T20:22:23.949Z,6.10
2023-02-15T20:22:59.324Z,8.40
2023-02-15T20:24:55.574Z,6.00
2023-02-15T20:25:28.951Z,8.30
2023-02-15T20:27:24.171Z,6.00
2023-02-15T20:27:57.679Z,8.20
2023-02-15T20:29:55.942Z,5.90
2023-02-15T20:30:29.468Z,8.20
2023-02-15T20:32:24.389Z,5.80
2023-02-15T20:32:56.837Z,8.20
2023-02-15T20:34:53.285Z,5.80
2023-02-15T20:35:28.700Z,8.20
2023-02-15T20:37:26.428Z,5.70
2023-02-15T20:37:59.645Z,8.10
2023-02-15T20:39:54.705Z,5.80
2023-02-15T20:40:32.453Z,8.10
2023-02-15T20:42:22.883Z,5.90
2023-02-15T20:42:59.891Z,8.00
2023-02-15T20:44:51.015Z,5.80
2023-02-15T20:45:33.430Z,7.90
2023-02-15T20:47:19.282Z,5.80
2023-02-15T20:48:02.088Z,7.90
2023-02-15T20:49:47.393Z,5.80
2023-02-15T20:50:33.037Z,7.90
2023-02-15T20:52:20.389Z,5.90
2023-02-15T20:53:02.817Z,7.80
2023-02-15T20:54:49.985Z,5.90
2023-02-15T20:55:31.465Z,7.80
2023-02-15T20:57:18.144Z,5.80
2023-02-15T20:57:59.230Z,7.80
2023-02-15T20:59:46.469Z,5.80
2023-02-15T21:00:31.829Z,7.80
2023-02-15T21:02:20.264Z,5.80
2023-02-15T21:03:00.603Z,7.80
2023-02-15T21:04:48.385Z,5.70
2023-02-15T21:05:35.376Z,7.70
2023-02-15T21:07:17.894Z,5.70
2023-02-15T21:08:02.456Z,7.70
2023-02-15T21:09:46.134Z,5.60
2023-02-15T21:10:33.108Z,7.70
2023-02-15T21:12:17.040Z,5.60
2023-02-15T21:13:01.292Z,7.60
2023-02-15T21:14:45.689Z,5.60
2023-02-15T21:15:34.898Z,7.60
2023-02-15T21:17:15.365Z,5.60
2023-02-15T21:18:08.003Z,7.60
2023-02-15T21:19:43.737Z,5.60
2023-02-15T21:20:35.895Z,7.50
2023-02-15T21:22:14.598Z,5.60
2023-02-15T21:23:04.796Z,7.50
2023-02-15T21:24:50.219Z,5.60
2023-02-15T21:25:37.164Z,7.50
2023-02-15T21:27:20.129Z,5.50
2023-02-15T21:28:05.995Z,7.50
2023-02-15T21:29:48.263Z,5.50
2023-02-15T21:30:32.878Z,7.50
2023-02-15T21:32:16.584Z,5.40
2023-02-15T21:32:59.694Z,7.40
2023-02-15T21:34:44.733Z,5.30
2023-02-15T21:35:26.635Z,7.40
2023-02-15T21:37:28.788Z,5.30
2023-02-15T21:37:54.085Z,7.30
2023-02-15T21:39:57.124Z,5.20
2023-02-15T21:40:21.020Z,7.40
2023-02-15T21:42:44.020Z,5.10
2023-02-15T21:43:06.804Z,7.40
2023-02-15T21:45:33.258Z,5.10
2023-02-15T21:45:52.745Z,7.40
2023-02-15T21:48:01.529Z,5.00
2023-02-15T21:48:21.855Z,7.40
2023-02-15T21:50:47.583Z,5.00
2023-02-15T21:51:11.188Z,7.30
2023-02-15T21:53:23.439Z,4.90
2023-02-15T21:53:43.419Z,7.30
2023-02-15T21:55:52.841Z,4.80
2023-02-15T21:56:16.439Z,7.30
2023-02-15T21:58:24.466Z,4.80
2023-02-15T21:58:44.119Z,7.30
2023-02-15T22:00:54.870Z,4.70
2023-02-15T22:01:29.168Z,7.30
2023-02-15T22:03:23.884Z,4.70
2023-02-15T22:03:58.693Z,7.30
2023-02-15T22:05:52.046Z,4.60
2023-02-15T22:06:26.021Z,7.30
2023-02-15T22:08:20.435Z,4.60
2023-02-15T22:08:53.222Z,7.30
2023-02-15T22:10:49.114Z,4.60
2023-02-15T22:11:24.775Z,7.20
2023-02-15T22:13:20.926Z,4.50
2023-02-15T22:13:51.974Z,7.30
2023-02-15T22:15:50.405Z,4.40
2023-02-15T22:16:21.383Z,7.30
2023-02-15T22:18:24.647Z,4.30
2023-02-15T22:18:49.228Z,7.30
2023-02-15T22:20:53.450Z,4.30
2023-02-15T22:21:19.555Z,7.20
2023-02-15T22:23:22.128Z,4.10
2023-02-15T22:23:47.486Z,7.20
2023-02-15T22:25:55.788Z,4.10
2023-02-15T22:26:27.235Z,7.20
2023-02-15T22:28:28.797Z,4.10
2023-02-15T22:28:54.424Z,7.20
2023-02-15T22:30:58.452Z,4.00
2023-02-15T22:31:23.147Z,7.20
2023-02-15T22:33:28.545Z,4.00
2023-02-15T22:33:51.098Z,7.20
2023-02-15T22:35:56.933Z,3.90
2023-02-15T22:36:27.318Z,7.10
2023-02-15T22:38:25.683Z,3.90
2023-02-15T22:38:54.196Z,7.10
2023-02-15T22:40:56.871Z,3.80
2023-02-15T22:41:25.331Z,7.00
2023-02-15T22:43:36.850Z,3.90
2023-02-15T22:43:53.107Z,7.00
2023-02-15T22:46:08.311Z,3.90
2023-02-15T22:46:25.045Z,7.00
2023-02-15T22:48:36.949Z,3.90
2023-02-15T22:48:52.628Z,7.00
2023-02-15T22:51:05.523Z,3.90
2023-02-15T22:51:23.456Z,7.00
2023-02-15T22:53:33.843Z,3.80
2023-02-15T22:53:52.362Z,7.00
2023-02-15T22:56:07.453Z,3.70
2023-02-15T22:56:26.755Z,6.90
2023-02-15T22:58:35.945Z,3.70
2023-02-15T22:59:02.100Z,7.00
2023-02-15T23:01:04.664Z,3.60
2023-02-15T23:01:34.524Z,7.00
2023-02-15T23:03:34.497Z,3.50
2023-02-15T23:04:03.709Z,6.90
2023-02-15T23:06:02.685Z,3.40
2023-02-15T23:06:31.536Z,6.90
2023-02-15T23:08:30.755Z,3.30
2023-02-15T23:09:00.759Z,6.80
2023-02-15T23:10:59.158Z,3.30
2023-02-15T23:11:28.295Z,6.80
2023-02-15T23:13:31.304Z,3.20
2023-02-15T23:13:55.354Z,6.80
2023-02-15T23:16:01.371Z,3.10
2023-02-15T23:16:22.335Z,6.80
2023-02-15T23:18:32.063Z,3.10
2023-02-15T23:18:50.103Z,6.80
2023-02-15T23:21:03.904Z,3.00
2023-02-15T23:21:23.234Z,6.80
2023-02-15T23:23:34.791Z,3.00
2023-02-15T23:23:53.181Z,6.80
2023-02-15T23:26:04.886Z,3.10
2023-02-15T23:26:21.595Z,6.80
2023-02-15T23:28:36.216Z,3.10
2023-02-15T23:28:50.559Z,6.80
2023-02-15T23:31:10.848Z,3.20
2023-02-15T23:31:32.151Z,6.70
2023-02-15T23:33:39.018Z,3.20
2023-02-15T23:34:01.805Z,6.70
2023-02-15T23:36:24.625Z,3.20
2023-02-15T23:36:30.120Z,6.80
2023-02-15T23:38:53.033Z,3.20
2023-02-15T23:39:19.810Z,6.80
2023-02-15T23:41:22.921Z,3.20
2023-02-15T23:41:46.641Z,6.70
2023-02-15T23:43:55.967Z,3.10
2023-02-15T23:44:14.487Z,6.80
2023-02-15T23:46:30.297Z,3.00
2023-02-15T23:46:47.069Z,6.70
2023-02-15T23:48:58.684Z,3.00
2023-02-15T23:49:15.963Z,6.60
2023-02-15T23:51:32.619Z,2.90
2023-02-15T23:51:51.427Z,6.70
2023-02-15T23:54:00.763Z,2.90
2023-02-15T23:54:21.225Z,6.70
2023-02-15T23:56:29.556Z,2.80
2023-02-15T23:56:52.356Z,6.70
2023-02-15T23:58:57.761Z,2.80
2023-02-15T23:59:23.596Z,6.70
